createdAt,value
2018-08-19T00:00:43.449Z,20.23
2018-08-19T00:03:11.991Z,19.53
2018-08-19T00:05:40.553Z,20.30
2018-08-19T00:08:09.057Z,22.13
2018-08-19T00:11:06.645Z,19.97
2018-08-19T00:13:36.337Z,20.63
2018-08-19T00:16:05.434Z,20.13
2018-08-19T00:18:35.525Z,19.80
2018-08-19T00:21:07.929Z,19.77
2018-08-19T00:23:41.876Z,19.33
2018-08-19T00:26:10.387Z,19.07
2018-08-19T00:28:38.842Z,18.83
2018-08-19T00:31:07.345Z,19.07
2018-08-19T00:33:35.909Z,20.00
2018-08-19T00:36:18.401Z,19.60
2018-08-19T00:38:46.981Z,20.83
2018-08-19T00:41:15.521Z,21.03
2018-08-19T00:43:43.981Z,20.37
2018-08-19T00:46:20.217Z,20.60
2018-08-19T00:48:48.769Z,21.23
2018-08-19T00:51:17.301Z,21.00
2018-08-19T00:53:45.913Z,20.70
2018-08-19T00:56:14.425Z,20.73
2018-08-19T00:58:43.049Z,20.63
2018-08-19T01:01:22.823Z,21.37
2018-08-19T01:03:54.906Z,19.77
2018-08-19T01:06:23.705Z,19.67
2018-08-19T01:08:52.261Z,20.07
2018-08-19T01:11:27.302Z,20.90
2018-08-19T01:13:55.789Z,21.27
2018-08-19T01:16:25.013Z,21.43
2018-08-19T01:19:01.812Z,20.73
2018-08-19T01:21:31.537Z,20.97
2018-08-19T01:24:01.234Z,20.90
2018-08-19T01:26:33.927Z,20.50
2018-08-19T01:29:02.481Z,20.83
2018-08-19T01:31:31.030Z,20.50
2018-08-19T01:33:59.618Z,21.27
2018-08-19T01:36:29.642Z,20.23
2018-08-19T01:38:58.342Z,20.47
2018-08-19T01:41:26.897Z,21.90
2018-08-19T01:44:05.097Z,20.10
2018-08-19T01:46:38.835Z,20.60
2018-08-19T01:49:09.232Z,19.77
2018-08-19T01:51:38.806Z,20.23
2018-08-19T01:54:11.538Z,20.30
2018-08-19T01:56:40.321Z,20.30
2018-08-19T01:59:08.878Z,20.43
2018-08-19T02:01:46.773Z,20.37
2018-08-19T02:04:15.358Z,20.03
2018-08-19T03:04:49.973Z,21.33
2018-08-19T03:07:18.521Z,20.73
2018-08-19T03:09:47.654Z,21.23
2018-08-19T03:12:16.260Z,20.97
2018-08-19T03:14:44.717Z,21.57
2018-08-19T03:17:13.224Z,21.97
2018-08-19T03:19:41.723Z,22.53
2018-08-19T03:22:10.777Z,22.07
2018-08-19T03:24:39.499Z,22.23
2018-08-19T03:27:08.217Z,22.70
2018-08-19T03:29:41.078Z,21.90
2018-08-19T03:32:10.905Z,21.13
2018-08-19T03:34:39.514Z,22.33
2018-08-19T03:37:08.069Z,22.47
2018-08-19T03:39:36.917Z,20.93
2018-08-19T03:42:05.449Z,19.57
2018-08-19T03:44:33.936Z,20.30
2018-08-19T03:47:05.654Z,21.87
2018-08-19T03:49:34.203Z,20.93
2018-08-19T03:52:02.719Z,21.87
2018-08-19T03:54:31.227Z,20.77
2018-08-19T03:56:59.773Z,18.57
2018-08-19T03:59:28.331Z,20.37
2018-08-19T04:01:57.013Z,19.07
2018-08-19T04:04:25.608Z,19.50
2018-08-19T04:06:54.079Z,19.13
2018-08-19T04:09:22.654Z,21.23
2018-08-19T04:12:27.934Z,20.63
2018-08-19T04:14:56.418Z,19.80
2018-08-19T04:17:24.953Z,20.43
2018-08-19T04:19:53.565Z,20.30
2018-08-19T04:22:22.287Z,20.97
2018-08-19T04:24:50.825Z,20.53
2018-08-19T04:27:19.333Z,21.43
2018-08-19T04:29:48.036Z,21.27
2018-08-19T04:32:22.074Z,21.33
2018-08-19T04:34:50.624Z,21.43
2018-08-19T04:37:19.115Z,21.30
2018-08-19T04:39:47.593Z,21.33
2018-08-19T04:42:16.208Z,21.23
2018-08-19T04:44:44.655Z,20.17
2018-08-19T04:47:24.688Z,20.93
2018-08-19T04:49:53.470Z,19.90
2018-08-19T04:52:23.232Z,21.63
2018-08-19T04:54:52.795Z,20.90
2018-08-19T04:57:21.602Z,19.50
2018-08-19T04:59:50.334Z,18.83
2018-08-19T05:02:20.079Z,19.03
2018-08-19T05:04:48.636Z,18.57
2018-08-19T05:07:17.231Z,17.80
2018-08-19T05:09:46.162Z,18.53
2018-08-19T05:12:14.978Z,17.33
2018-08-19T05:14:43.457Z,16.73
2018-08-19T05:17:12.317Z,17.00
2018-08-19T05:19:40.825Z,16.83
2018-08-19T05:22:15.441Z,16.17
2018-08-19T05:24:45.624Z,16.63
2018-08-19T05:27:15.616Z,16.60
2018-08-19T05:29:44.126Z,14.47
2018-08-19T05:32:14.518Z,15.67
2018-08-19T05:34:43.575Z,16.23
2018-08-19T05:37:12.312Z,14.67
2018-08-19T05:39:46.680Z,16.83
2018-08-19T05:42:15.214Z,16.40
2018-08-19T05:44:44.381Z,17.97
2018-08-19T05:47:16.553Z,16.17
2018-08-19T05:49:46.400Z,16.63
2018-08-19T05:52:16.974Z,17.00
2018-08-19T05:54:50.920Z,17.53
2018-08-19T05:57:19.696Z,17.97
2018-08-19T05:59:49.513Z,17.77
2018-08-19T06:02:23.817Z,18.07
2018-08-19T06:04:52.342Z,18.53
2018-08-19T06:07:21.265Z,17.53
2018-08-19T06:09:50.076Z,17.90
2018-08-19T06:12:18.674Z,16.97
2018-08-19T06:14:47.161Z,17.57
2018-08-19T06:17:16.107Z,16.07
2018-08-19T06:19:44.641Z,16.73
2018-08-19T06:22:13.820Z,16.60
2018-08-19T06:24:42.452Z,17.03
2018-08-19T06:27:10.910Z,17.80
2018-08-19T06:29:47.328Z,18.73
2018-08-19T06:32:21.155Z,19.90
2018-08-19T06:34:51.258Z,21.13
2018-08-19T06:37:21.151Z,21.27
2018-08-19T06:39:51.100Z,19.40
2018-08-19T06:42:20.667Z,19.60
2018-08-19T06:44:49.213Z,19.30
2018-08-19T06:47:17.814Z,18.73
2018-08-19T06:49:51.835Z,19.77
2018-08-19T06:52:21.359Z,18.00
2018-08-19T06:54:50.168Z,17.60
2018-08-19T06:57:18.763Z,17.50
2018-08-19T06:59:47.458Z,18.37
2018-08-19T07:02:16.036Z,18.67
2018-08-19T07:04:45.844Z,17.23
2018-08-19T07:07:15.629Z,19.37
2018-08-19T07:09:44.659Z,19.47
2018-08-19T07:12:19.005Z,19.80
2018-08-19T07:14:48.720Z,18.27
2018-08-19T07:17:18.432Z,17.93
2018-08-19T07:19:47.195Z,18.00
2018-08-19T07:22:17.771Z,17.33
2018-08-19T07:24:46.893Z,15.70
2018-08-19T07:27:15.678Z,16.73
2018-08-19T07:29:44.404Z,15.50
2018-08-19T07:32:14.405Z,15.00
2018-08-19T07:34:43.143Z,15.53
2018-08-19T07:37:11.893Z,15.87
2018-08-19T07:39:46.830Z,15.40
2018-08-19T07:42:15.816Z,15.10
2018-08-19T07:44:44.384Z,14.90
2018-08-19T07:47:12.990Z,14.77
2018-08-19T07:49:41.489Z,14.70
2018-08-19T07:52:09.993Z,14.57
2018-08-19T07:54:38.651Z,15.27
2018-08-19T07:57:13.259Z,14.60
2018-08-19T07:59:42.417Z,14.27
2018-08-19T08:02:10.941Z,14.33
2018-08-19T08:04:45.233Z,14.97
2018-08-19T08:07:14.554Z,15.10
2018-08-19T08:09:43.361Z,14.30
2018-08-19T08:12:13.158Z,13.60
2018-08-19T08:14:49.803Z,14.20
2018-08-19T08:17:18.406Z,14.30
2018-08-19T08:20:03.266Z,13.20
2018-08-19T08:22:32.687Z,13.47
2018-08-19T08:25:01.333Z,12.03
2018-08-19T08:27:30.911Z,12.20
2018-08-19T08:30:02.142Z,13.00
2018-08-19T08:32:30.860Z,11.73
2018-08-19T08:34:59.341Z,11.50
2018-08-19T08:37:27.845Z,12.23
2018-08-19T08:40:00.513Z,11.40
2018-08-19T08:42:33.519Z,11.50
2018-08-19T08:45:02.145Z,11.90
2018-08-19T08:47:31.658Z,11.17
2018-08-19T08:50:00.120Z,11.13
2018-08-19T08:52:28.625Z,11.10
2018-08-19T08:54:58.799Z,9.90
2018-08-19T08:57:27.476Z,9.87
2018-08-19T08:59:56.008Z,9.40
2018-08-19T09:02:24.638Z,9.93
2018-08-19T09:04:54.182Z,9.03
2018-08-19T09:07:22.807Z,7.80
2018-08-19T09:09:51.989Z,8.70
2018-08-19T09:12:53.202Z,8.40
2018-08-19T09:15:21.819Z,6.93
2018-08-19T09:17:50.365Z,8.23
2018-08-19T09:20:18.856Z,7.10
2018-08-19T09:22:47.975Z,6.67
2018-08-19T09:25:16.501Z,7.30
2018-08-19T09:27:45.009Z,7.30
2018-08-19T09:30:22.741Z,7.27
2018-08-19T09:32:57.957Z,7.37
2018-08-19T09:35:27.733Z,6.83
2018-08-19T09:38:01.431Z,6.03
2018-08-19T09:40:29.973Z,5.87
2018-08-19T09:42:58.505Z,6.97
2018-08-19T09:45:27.017Z,6.20
2018-08-19T09:47:55.637Z,6.17
2018-08-19T09:50:23.988Z,6.67
2018-08-19T09:52:52.450Z,7.07
2018-08-19T09:55:26.944Z,6.60
2018-08-19T09:57:56.338Z,5.70
2018-08-19T10:00:26.137Z,6.13
2018-08-19T10:02:54.587Z,6.57
2018-08-19T10:05:24.733Z,5.97
2018-08-19T10:07:54.970Z,6.17
2018-08-19T10:10:24.382Z,5.67
2018-08-19T10:12:52.938Z,5.93
2018-08-19T10:15:21.397Z,5.77
2018-08-19T10:17:49.930Z,5.40
2018-08-19T10:20:18.430Z,4.67
2018-08-19T10:22:46.903Z,5.20
2018-08-19T10:25:17.338Z,4.93
2018-08-19T10:27:47.609Z,5.40
2018-08-19T10:30:16.896Z,5.10
2018-08-19T10:32:45.954Z,5.33
2018-08-19T10:35:18.584Z,5.10
2018-08-19T10:37:47.522Z,4.53
2018-08-19T10:40:15.993Z,4.70
2018-08-19T10:42:44.469Z,4.90
2018-08-19T10:45:21.196Z,4.93
2018-08-19T10:47:49.801Z,4.90
2018-08-19T10:50:18.346Z,5.33
2018-08-19T10:52:46.845Z,5.20
2018-08-19T10:55:15.672Z,5.10
2018-08-19T10:57:44.149Z,5.20
2018-08-19T11:00:15.140Z,5.00
2018-08-19T11:02:43.912Z,4.80
2018-08-19T11:05:12.470Z,4.53
2018-08-19T11:07:41.117Z,4.87
2018-08-19T11:10:19.793Z,4.90
2018-08-19T11:12:51.053Z,4.93
2018-08-19T11:15:34.004Z,5.10
2018-08-19T11:18:40.497Z,5.63
2018-08-19T11:21:14.310Z,6.13
2018-08-19T11:23:44.097Z,6.17
2018-08-19T11:26:13.077Z,6.00
2018-08-19T11:28:47.512Z,6.03
2018-08-19T11:31:25.296Z,5.80
2018-08-19T11:33:58.963Z,6.47
2018-08-19T11:36:33.645Z,6.23
2018-08-19T11:39:02.166Z,6.23
2018-08-19T11:41:31.984Z,5.90
2018-08-19T11:44:04.643Z,6.23
2018-08-19T11:46:33.150Z,5.77
2018-08-19T11:49:06.978Z,5.93
2018-08-19T11:51:59.931Z,6.27
2018-08-19T11:54:28.955Z,6.17
2018-08-19T11:57:03.507Z,6.60
2018-08-19T11:59:36.294Z,6.30
2018-08-19T12:02:07.757Z,6.90
2018-08-19T12:04:36.229Z,6.57
2018-08-19T12:07:04.813Z,6.13
2018-08-19T12:09:33.537Z,6.70
2018-08-19T12:12:02.086Z,4.70
2018-08-19T12:14:34.379Z,4.73
2018-08-19T12:17:06.173Z,3.70
2018-08-19T12:19:37.331Z,3.10
2018-08-19T12:22:06.196Z,3.07
2018-08-19T12:24:51.175Z,3.53
2018-08-19T12:27:22.384Z,4.30
2018-08-19T12:29:55.370Z,4.40
2018-08-19T12:32:26.009Z,4.57
2018-08-19T12:34:55.846Z,4.33
2018-08-19T12:37:26.542Z,4.50
2018-08-19T12:39:55.731Z,4.60
2018-08-19T12:42:25.415Z,3.93
2018-08-19T12:45:09.728Z,4.47
2018-08-19T12:47:38.221Z,4.17
2018-08-19T12:50:13.414Z,5.30
2018-08-19T12:52:42.083Z,6.10
2018-08-19T12:55:12.386Z,6.20
2018-08-19T12:57:42.005Z,6.30
2018-08-19T13:00:18.786Z,5.27
2018-08-19T13:02:49.201Z,4.63
2018-08-19T13:05:19.767Z,4.30
2018-08-19T13:07:48.606Z,4.40
2018-08-19T13:10:17.808Z,5.00
2018-08-19T13:12:57.855Z,5.60
2018-08-19T13:15:29.359Z,5.20
2018-08-19T13:17:58.293Z,6.00
2018-08-19T13:20:27.262Z,5.90
2018-08-19T13:23:01.157Z,6.43
2018-08-19T13:25:30.409Z,6.93
2018-08-19T13:27:59.260Z,7.80
2018-08-19T13:30:28.442Z,7.23
2018-08-19T13:32:57.370Z,6.90
2018-08-19T13:35:25.938Z,8.27
2018-08-19T13:37:55.086Z,8.00
2018-08-19T13:40:25.814Z,8.33
2018-08-19T13:42:54.340Z,8.83
2018-08-19T13:45:24.400Z,8.07
2018-08-19T13:47:54.226Z,9.53
2018-08-19T13:50:22.755Z,9.83
2018-08-19T13:52:51.282Z,10.13
2018-08-19T13:55:20.844Z,9.70
2018-08-19T13:57:49.580Z,8.60
2018-08-19T14:00:20.842Z,9.27
2018-08-19T14:02:50.191Z,9.13
2018-08-19T14:05:18.794Z,8.60
2018-08-19T14:07:47.320Z,8.53
2018-08-19T14:10:16.715Z,8.40
2018-08-19T14:12:46.413Z,7.03
2018-08-19T14:15:15.162Z,9.77
2018-08-19T14:17:44.428Z,8.43
2018-08-19T14:20:13.147Z,6.97
2018-08-19T14:22:41.778Z,6.90
2018-08-19T14:25:11.925Z,7.93
2018-08-19T14:27:40.839Z,7.83
2018-08-19T14:30:11.110Z,8.53
2018-08-19T14:32:42.251Z,8.87
2018-08-19T14:35:11.039Z,9.87
2018-08-19T14:37:39.880Z,10.00
2018-08-19T14:40:10.910Z,9.43
2018-08-19T14:42:39.509Z,9.30
2018-08-19T14:45:08.058Z,9.63
2018-08-19T14:47:36.637Z,8.60
2018-08-19T14:50:10.496Z,9.33
2018-08-19T14:52:38.997Z,8.43
2018-08-19T14:55:08.825Z,8.30
2018-08-19T14:57:37.867Z,9.17
2018-08-19T15:00:10.381Z,8.20
2018-08-19T15:02:39.357Z,8.57
2018-08-19T15:05:08.288Z,7.60
2018-08-19T15:07:36.831Z,7.00
2018-08-19T15:10:05.757Z,7.90
2018-08-19T15:12:34.321Z,7.27
2018-08-19T15:15:03.183Z,6.80
2018-08-19T15:17:40.508Z,7.03
2018-08-19T15:20:09.222Z,7.10
2018-08-19T15:22:37.726Z,6.77
2018-08-19T15:25:06.324Z,7.10
2018-08-19T15:27:39.112Z,6.73
2018-08-19T15:30:09.185Z,7.37
2018-08-19T15:32:37.952Z,7.10
2018-08-19T15:35:06.333Z,7.40
2018-08-19T15:37:34.959Z,7.30
2018-08-19T15:40:03.739Z,7.17
2018-08-19T15:42:32.257Z,7.10
2018-08-19T15:45:00.734Z,8.47
2018-08-19T15:47:29.375Z,8.77
2018-08-19T15:50:09.893Z,8.53
2018-08-19T15:52:38.591Z,8.07
2018-08-19T15:55:07.174Z,8.13
2018-08-19T15:57:36.034Z,8.13
2018-08-19T16:00:04.818Z,7.60
2018-08-19T16:02:33.750Z,7.50
2018-08-19T16:05:06.769Z,7.07
2018-08-19T16:07:35.338Z,7.80
2018-08-19T16:10:04.346Z,7.63
2018-08-19T16:12:33.005Z,7.80
2018-08-19T16:15:01.852Z,7.47
2018-08-19T16:17:30.498Z,7.57
2018-08-19T16:19:59.093Z,7.97
2018-08-19T16:22:27.632Z,8.20
2018-08-19T16:24:56.111Z,7.80
2018-08-19T16:27:24.646Z,7.73
2018-08-19T16:29:53.246Z,7.63
2018-08-19T16:32:21.981Z,7.40
2018-08-19T16:34:50.854Z,7.43
2018-08-19T16:37:19.551Z,11.27
2018-08-19T16:39:48.251Z,13.67
2018-08-19T16:42:18.037Z,15.27
2018-08-19T16:44:46.559Z,15.30
2018-08-19T16:47:15.339Z,12.33
2018-08-19T16:49:44.997Z,12.33
2018-08-19T16:52:14.538Z,10.27
2018-08-19T16:54:43.260Z,9.07
2018-08-19T16:57:11.968Z,11.30
2018-08-19T16:59:40.509Z,10.80
2018-08-19T17:02:09.070Z,9.30
2018-08-19T17:04:38.493Z,8.60
2018-08-19T17:07:09.571Z,8.57
2018-08-19T17:09:38.418Z,8.53
2018-08-19T17:12:07.231Z,8.73
2018-08-19T17:14:35.777Z,8.67
2018-08-19T17:17:04.369Z,11.40
2018-08-19T17:19:32.998Z,10.30
2018-08-19T17:22:06.489Z,10.40
2018-08-19T17:24:35.002Z,11.70
2018-08-19T17:27:08.982Z,13.67
2018-08-19T17:29:37.445Z,14.10
2018-08-19T17:32:06.182Z,11.90
2018-08-19T17:34:34.955Z,10.40
2018-08-19T17:37:03.923Z,11.80
2018-08-19T17:39:32.491Z,10.83
2018-08-19T17:42:02.092Z,10.53
2018-08-19T17:44:30.581Z,10.20
2018-08-19T17:46:59.156Z,10.47
2018-08-19T17:49:29.274Z,10.27
2018-08-19T17:51:59.307Z,12.63
2018-08-19T17:54:29.376Z,9.57
2018-08-19T17:56:59.253Z,9.33
2018-08-19T17:59:28.041Z,9.97
2018-08-19T18:01:56.616Z,9.70
2018-08-19T18:04:33.210Z,9.43
2018-08-19T18:07:02.072Z,9.57
2018-08-19T18:09:30.614Z,9.43
2018-08-19T18:12:03.911Z,10.10
2018-08-19T18:14:32.738Z,10.30
2018-08-19T18:17:01.602Z,11.30
2018-08-19T18:19:34.774Z,10.10
2018-08-19T18:22:03.469Z,10.00
2018-08-19T18:24:32.006Z,9.90
2018-08-19T18:27:00.594Z,10.53
2018-08-19T18:29:39.851Z,10.67
2018-08-19T18:32:09.436Z,12.67
2018-08-19T18:34:39.628Z,12.07
2018-08-19T18:37:08.496Z,13.27
2018-08-19T18:39:37.391Z,10.67
2018-08-19T18:42:07.017Z,12.73
2018-08-19T18:44:35.655Z,9.80
2018-08-19T18:47:04.211Z,11.33
2018-08-19T18:49:32.785Z,12.17
2018-08-19T18:52:06.652Z,12.47
2018-08-19T18:54:35.468Z,12.73
2018-08-19T18:57:06.440Z,11.97
2018-08-19T18:59:35.292Z,12.70
2018-08-19T19:02:04.621Z,11.33
2018-08-19T19:04:33.196Z,11.07
2018-08-19T19:07:01.746Z,11.27
2018-08-19T19:09:36.500Z,9.37
2018-08-19T19:12:05.457Z,10.70
2018-08-19T19:14:34.240Z,10.90
2018-08-19T19:17:03.034Z,10.97
2018-08-19T19:19:35.957Z,11.13
2018-08-19T19:22:04.727Z,11.13
2018-08-19T19:24:41.944Z,11.10
2018-08-19T19:27:11.078Z,11.97
2018-08-19T19:29:39.602Z,9.97
2018-08-19T19:32:18.093Z,11.17
2018-08-19T19:34:49.634Z,10.80
2018-08-19T19:37:18.177Z,10.57
2018-08-19T19:39:53.009Z,11.23
2018-08-19T19:42:21.551Z,13.17
2018-08-19T19:44:50.078Z,12.47
2018-08-19T19:47:18.611Z,12.83
2018-08-19T19:49:54.403Z,12.67
2018-08-19T19:52:23.170Z,12.90
2018-08-19T19:54:52.358Z,13.43
2018-08-19T19:57:20.884Z,12.73
2018-08-19T19:59:49.439Z,13.27
2018-08-19T20:02:28.054Z,12.53
2018-08-19T20:04:56.615Z,13.90
2018-08-19T20:07:25.191Z,12.40
2018-08-19T20:09:53.710Z,13.50
2018-08-19T20:12:27.203Z,13.03
2018-08-19T20:14:55.813Z,12.57
2018-08-19T20:17:24.354Z,12.47
2018-08-19T20:19:52.859Z,12.90
2018-08-19T20:22:21.474Z,13.13
2018-08-19T20:24:50.006Z,13.20
2018-08-19T20:27:18.600Z,14.03
2018-08-19T20:29:51.409Z,13.13
2018-08-19T20:32:20.047Z,14.37
2018-08-19T20:34:48.633Z,14.13
2018-08-19T20:37:20.205Z,13.30
2018-08-19T20:39:48.925Z,13.33
2018-08-19T20:42:17.897Z,13.90
2018-08-19T20:44:46.418Z,13.87
2018-08-19T20:47:15.090Z,13.23
2018-08-19T20:49:43.720Z,13.97
2018-08-19T20:52:12.440Z,13.40
2018-08-19T20:54:40.920Z,13.80
2018-08-19T20:57:09.446Z,13.33
2018-08-19T20:59:38.884Z,14.77
2018-08-19T21:02:08.909Z,17.07
2018-08-19T21:04:37.448Z,17.27
2018-08-19T21:07:06.488Z,16.77
2018-08-19T21:09:36.083Z,17.87
2018-08-19T21:12:04.666Z,17.57
2018-08-19T21:14:33.342Z,17.70
2018-08-19T21:17:04.011Z,16.33
2018-08-19T21:19:32.543Z,16.90
2018-08-19T21:22:01.207Z,16.57
2018-08-19T21:24:30.648Z,15.60
2018-08-19T21:27:00.831Z,16.90
2018-08-19T21:29:31.001Z,16.50
2018-08-19T21:31:59.979Z,16.17
2018-08-19T21:34:29.243Z,17.33
2018-08-19T21:36:58.454Z,17.50
2018-08-19T21:39:28.196Z,17.40
2018-08-19T21:41:56.829Z,18.00
2018-08-19T21:44:25.873Z,16.20
2018-08-19T21:46:54.381Z,17.50
2018-08-19T21:49:22.884Z,16.97
2018-08-19T21:51:52.238Z,16.23
2018-08-19T21:54:20.742Z,16.67
2018-08-19T21:56:49.263Z,15.03
2018-08-19T21:59:24.567Z,15.73
2018-08-19T22:01:55.944Z,16.20
2018-08-19T22:04:24.521Z,16.33
2018-08-19T22:06:53.287Z,16.73
2018-08-19T22:09:28.010Z,17.97
2018-08-19T22:12:00.061Z,17.17
2018-08-19T22:14:28.877Z,16.30
2018-08-19T22:17:02.843Z,15.63
2018-08-19T22:19:31.986Z,15.73
2018-08-19T22:22:01.036Z,15.80
2018-08-19T22:24:29.584Z,16.73
2018-08-19T22:27:03.702Z,16.00
2018-08-19T22:29:32.830Z,16.80
2018-08-19T22:32:01.408Z,17.40
2018-08-19T22:34:30.089Z,16.90
2018-08-19T22:36:58.590Z,16.33
2018-08-19T22:39:27.113Z,15.93
2018-08-19T22:41:55.653Z,17.57
2018-08-19T22:44:24.194Z,16.73
2018-08-19T22:46:52.662Z,17.20
2018-08-19T22:49:21.495Z,17.33
2018-08-19T22:51:50.319Z,18.03
2018-08-19T22:54:19.887Z,19.37
2018-08-19T22:56:48.431Z,18.70
2018-08-19T22:59:17.221Z,18.70
2018-08-19T23:01:47.717Z,17.57
2018-08-19T23:04:16.266Z,17.83
2018-08-19T23:06:45.131Z,17.73
2018-08-19T23:09:13.986Z,17.63
2018-08-19T23:11:46.348Z,17.60
2018-08-19T23:14:26.654Z,17.73
2018-08-19T23:16:55.628Z,16.57
2018-08-19T23:19:24.141Z,17.40
2018-08-19T23:21:52.653Z,16.53
2018-08-19T23:24:21.408Z,15.87
2018-08-19T23:26:50.870Z,17.50
2018-08-19T23:29:20.953Z,21.83
2018-08-19T23:31:49.596Z,18.77
2018-08-19T23:34:18.130Z,18.70
2018-08-19T23:36:47.294Z,18.37
2018-08-19T23:39:15.788Z,18.27
2018-08-19T23:41:44.440Z,17.90
2018-08-19T23:44:13.062Z,17.20
2018-08-19T23:46:42.362Z,19.57
2018-08-19T23:49:10.805Z,18.90
2018-08-19T23:51:39.915Z,19.27
2018-08-19T23:54:08.699Z,18.50
2018-08-19T23:56:37.178Z,19.17
2018-08-19T23:59:05.849Z,18.83
